Time;durP1;ratioP1;P1;durP2;ratioP2;P2;SDS_P1;SDS_P2;PMS_P1;PMS_P2;Temp;Humidity;BMP_temperature;BMP_pressure;BME280_temperature;BME280_humidity;BME280_pressure;Samples;Min_cycle;Max_cycle;Signal;HPM_P1;HPM_P2
2022/09/20 00:01:24;;;;;;;2.22;1.35;;;;;;;;;;5052297;28;20028;-66
2022/09/20 00:03:52;;;;;;;2.88;0.95;;;;;;;;;;5051793;28;20037;-66
2022/09/20 00:06:20;;;;;;;6.90;2.47;;;;;;;;;;5051938;28;20105;-67
2022/09/20 00:08:47;;;;;;;2.50;1.00;;;;;;;;;;5051873;28;20397;-73
2022/09/20 00:11:17;;;;;;;2.53;1.10;;;;;;;;;;5051916;28;20029;-74
2022/09/20 00:13:47;;;;;;;2.30;1.30;;;;;;;;;;5052073;28;20116;-72
2022/09/20 00:16:20;;;;;;;4.13;0.90;;;;;;;;;;5050644;28;20025;-74
2022/09/20 00:18:50;;;;;;;6.50;1.08;;;;;;;;;;5051754;28;20041;-73
2022/09/20 00:21:18;;;;;;;3.65;0.90;;;;;;;;;;5057926;28;20064;-73
2022/09/20 00:23:44;;;;;;;5.43;1.30;;;;;;;;;;5071981;28;20028;-72
2022/09/20 00:26:10;;;;;;;4.07;0.90;;;;;;;;;;5071686;28;20095;-74
2022/09/20 00:28:36;;;;;;;3.47;0.90;;;;;;;;;;5071839;28;20056;-73
2022/09/20 00:31:01;;;;;;;1.40;0.85;;;;;;;;;;5071929;28;20025;-73
2022/09/20 00:35:06;;;;;;;1.75;0.90;;;;;;;;;;5071910;28;20024;-73
2022/09/20 00:36:12;;;;;;;2.75;1.13;;;;;;;;;;5073404;28;20028;-74
2022/09/20 00:38:38;;;;;;;2.25;0.90;;;;;;;;;;5075354;28;20028;-69
2022/09/20 00:41:04;;;;;;;3.97;1.00;;;;;;;;;;5075213;28;20036;-66
2022/09/20 00:43:55;;;;;;;3.03;0.85;;;;;;;;;;5075323;28;20439;-74
2022/09/20 00:46:23;;;;;;;3.58;0.82;;;;;;;;;;5072212;28;20032;-74
2022/09/20 00:48:53;;;;;;;6.03;0.85;;;;;;;;;;5075121;28;20512;-73
2022/09/20 00:51:26;;;;;;;3.80;1.20;;;;;;;;;;5075308;28;20039;-74
2022/09/20 00:53:55;;;;;;;2.60;0.80;;;;;;;;;;5075562;28;20633;-71
2022/09/20 00:56:30;;;;;;;2.05;0.60;;;;;;;;;;5074803;28;20480;-72
2022/09/20 00:59:18;;;;;;;2.92;0.80;;;;;;;;;;5074864;28;20113;-66
2022/09/20 01:01:47;;;;;;;4.45;0.80;;;;;;;;;;5075026;28;20036;-70
2022/09/20 01:04:15;;;;;;;3.72;1.00;;;;;;;;;;5074916;28;20029;-74
2022/09/20 01:06:43;;;;;;;1.20;0.68;;;;;;;;;;5074906;28;20024;-72
2022/09/20 01:09:09;;;;;;;1.83;0.75;;;;;;;;;;5074610;28;20119;-72
2022/09/20 01:11:36;;;;;;;1.85;0.70;;;;;;;;;;5074888;28;20107;-73
2022/09/20 01:14:01;;;;;;;5.63;0.73;;;;;;;;;;5074724;28;20032;-73
2022/09/20 01:16:29;;;;;;;1.90;0.80;;;;;;;;;;5074614;28;20025;-68
2022/09/20 01:19:01;;;;;;;0.93;0.65;;;;;;;;;;5074591;28;20086;-66
2022/09/20 01:21:27;;;;;;;2.85;0.70;;;;;;;;;;5074444;28;20043;-71
2022/09/20 01:23:59;;;;;;;2.53;0.70;;;;;;;;;;5074606;28;20028;-70
2022/09/20 01:26:42;;;;;;;1.98;0.80;;;;;;;;;;5074477;28;20069;-67
2022/09/20 01:29:39;;;;;;;2.63;0.82;;;;;;;;;;5074553;28;20034;-67
2022/09/20 01:32:11;;;;;;;3.30;0.80;;;;;;;;;;5074264;28;20032;-71
2022/09/20 01:34:46;;;;;;;2.63;0.80;;;;;;;;;;5074553;28;20139;-74
2022/09/20 01:37:25;;;;;;;5.53;0.82;;;;;;;;;;5074364;28;20029;-74
2022/09/20 01:40:11;;;;;;;3.45;1.00;;;;;;;;;;5074281;28;20067;-66
2022/09/20 01:42:55;;;;;;;3.00;0.82;;;;;;;;;;5074330;28;20381;-67
2022/09/20 01:45:28;;;;;;;3.03;0.80;;;;;;;;;;5074151;28;20028;-67
2022/09/20 01:48:12;;;;;;;3.75;0.75;;;;;;;;;;5073379;28;20101;-69
2022/09/20 01:50:49;;;;;;;3.45;0.80;;;;;;;;;;5074308;28;20066;-73
2022/09/20 01:53:17;;;;;;;3.00;0.82;;;;;;;;;;5073847;28;20492;-67
2022/09/20 01:56:13;;;;;;;3.45;0.98;;;;;;;;;;5073935;28;20025;-66
2022/09/20 01:58:53;;;;;;;6.03;0.73;;;;;;;;;;5073941;28;20465;-68
2022/09/20 02:01:46;;;;;;;3.40;0.82;;;;;;;;;;5074082;28;20037;-69
2022/09/20 02:04:23;;;;;;;3.13;0.68;;;;;;;;;;5073790;28;20063;-73
2022/09/20 02:06:55;;;;;;;3.33;0.85;;;;;;;;;;5073849;28;20461;-74
2022/09/20 02:09:24;;;;;;;2.40;0.70;;;;;;;;;;5073685;28;20032;-66
2022/09/20 02:12:11;;;;;;;1.33;0.80;;;;;;;;;;5072348;28;20389;-71
2022/09/20 02:14:51;;;;;;;5.70;1.20;;;;;;;;;;5073737;28;20103;-69
2022/09/20 02:17:40;;;;;;;10.43;1.00;;;;;;;;;;5073577;28;20036;-66
2022/09/20 02:20:06;;;;;;;7.05;0.80;;;;;;;;;;5073348;28;20056;-67
2022/09/20 02:22:55;;;;;;;5.20;0.90;;;;;;;;;;5056194;28;20028;-69
2022/09/20 02:25:33;;;;;;;1.47;0.70;;;;;;;;;;5053636;28;20466;-66
2022/09/20 02:28:24;;;;;;;3.20;0.80;;;;;;;;;;5053487;28;20658;-68
2022/09/20 02:31:12;;;;;;;2.38;0.70;;;;;;;;;;5052889;28;20112;-68
2022/09/20 02:33:56;;;;;;;2.42;0.75;;;;;;;;;;5053280;28;20071;-66
2022/09/20 02:36:48;;;;;;;3.10;0.82;;;;;;;;;;5053010;28;20482;-72
2022/09/20 02:39:30;;;;;;;3.85;1.13;;;;;;;;;;5053303;28;20029;-67
2022/09/20 02:42:24;;;;;;;5.03;0.98;;;;;;;;;;5053328;28;20036;-68
2022/09/20 02:44:55;;;;;;;7.30;1.05;;;;;;;;;;5053037;28;20075;-67
2022/09/20 02:47:34;;;;;;;2.30;1.05;;;;;;;;;;5051807;28;20116;-64
2022/09/20 02:50:23;;;;;;;7.22;0.95;;;;;;;;;;5036607;28;20040;-66
2022/09/20 02:53:19;;;;;;;2.03;0.80;;;;;;;;;;5033007;28;20026;-66
2022/09/20 02:56:02;;;;;;;2.25;0.90;;;;;;;;;;5033136;28;20075;-66
2022/09/20 02:58:41;;;;;;;2.83;0.95;;;;;;;;;;5031503;28;20037;-71
2022/09/20 03:01:18;;;;;;;3.72;1.20;;;;;;;;;;5033023;28;20424;-66
2022/09/20 03:04:41;;;;;;;5.88;1.23;;;;;;;;;;5033016;28;20041;-66
2022/09/20 03:07:24;;;;;;;2.95;1.08;;;;;;;;;;4971705;28;20030;-67
2022/09/20 03:10:11;;;;;;;2.03;1.00;;;;;;;;;;4972254;28;20038;-67
2022/09/20 03:13:15;;;;;;;1.67;0.85;;;;;;;;;;4972130;28;20034;-69
2022/09/20 03:16:14;;;;;;;2.15;0.80;;;;;;;;;;4971973;28;20039;-67
2022/09/20 03:18:53;;;;;;;2.67;0.77;;;;;;;;;;4971948;28;20038;-66
2022/09/20 03:21:47;;;;;;;5.17;0.93;;;;;;;;;;4984891;28;20037;-66
2022/09/20 03:24:40;;;;;;;2.83;0.90;;;;;;;;;;5010940;28;20268;-67
2022/09/20 03:27:30;;;;;;;3.22;0.80;;;;;;;;;;5010828;28;20038;-74
2022/09/20 03:30:30;;;;;;;2.28;0.90;;;;;;;;;;5010938;28;20407;-74
2022/09/20 03:33:26;;;;;;;5.35;1.25;;;;;;;;;;5010850;28;20419;-74
2022/09/20 03:35:55;;;;;;;2.80;0.80;;;;;;;;;;5010767;28;20069;-74
2022/09/20 03:38:42;;;;;;;1.95;1.13;;;;;;;;;;5061064;28;20043;-74
2022/09/20 03:41:13;;;;;;;3.90;1.20;;;;;;;;;;5072510;28;20099;-74
2022/09/20 03:44:21;;;;;;;3.20;0.90;;;;;;;;;;5072456;28;20052;-74
2022/09/20 03:46:47;;;;;;;3.58;1.00;;;;;;;;;;5072423;28;20052;-73
2022/09/20 03:49:31;;;;;;;3.17;1.30;;;;;;;;;;5072295;28;20021;-74
2022/09/20 03:52:13;;;;;;;5.55;0.95;;;;;;;;;;5072455;28;20025;-72
2022/09/20 03:55:03;;;;;;;2.85;0.93;;;;;;;;;;5072363;28;20074;-75
2022/09/20 03:57:51;;;;;;;3.53;1.00;;;;;;;;;;5072240;28;20024;-71
2022/09/20 04:00:40;;;;;;;6.03;0.80;;;;;;;;;;5072352;28;20028;-75
2022/09/20 04:03:08;;;;;;;3.25;1.10;;;;;;;;;;5072087;28;20040;-72
2022/09/20 04:05:43;;;;;;;2.35;0.90;;;;;;;;;;5072298;28;20033;-74
2022/09/20 04:08:20;;;;;;;2.17;0.93;;;;;;;;;;5072023;28;20021;-67
2022/09/20 04:11:05;;;;;;;1.75;0.85;;;;;;;;;;5073305;28;20036;-74
2022/09/20 04:13:43;;;;;;;4.75;1.35;;;;;;;;;;5076069;28;20016;-74
2022/09/20 04:16:14;;;;;;;2.58;0.85;;;;;;;;;;5076007;28;20023;-66
2022/09/20 04:19:14;;;;;;;4.78;1.10;;;;;;;;;;5075768;28;20028;-71
2022/09/20 04:21:53;;;;;;;1.95;0.70;;;;;;;;;;5075537;28;20379;-73
2022/09/20 04:24:40;;;;;;;4.78;0.98;;;;;;;;;;5075796;28;20382;-66
2022/09/20 04:27:09;;;;;;;5.32;1.10;;;;;;;;;;5075680;28;20033;-70
2022/09/20 04:29:52;;;;;;;2.30;1.00;;;;;;;;;;5075750;28;20028;-67
2022/09/20 04:32:30;;;;;;;3.33;0.93;;;;;;;;;;5075418;28;20025;-66
2022/09/20 04:38:18;;;;;;;2.05;1.00;;;;;;;;;;5075623;28;20102;-72
2022/09/20 04:41:03;;;;;;;4.45;1.27;;;;;;;;;;5075557;28;20040;-74
2022/09/20 04:44:06;;;;;;;4.78;0.82;;;;;;;;;;5075500;28;20047;-74
2022/09/20 04:46:52;;;;;;;7.15;3.83;;;;;;;;;;5075066;28;20519;-69
2022/09/20 04:49:42;;;;;;;6.57;1.95;;;;;;;;;;5075411;28;20021;-72
2022/09/20 04:52:42;;;;;;;6.00;1.40;;;;;;;;;;5075449;28;20481;-68
2022/09/20 04:55:29;;;;;;;4.78;1.80;;;;;;;;;;5075344;28;20535;-73
2022/09/20 04:58:19;;;;;;;4.95;1.25;;;;;;;;;;5074978;28;20343;-74
2022/09/20 05:01:15;;;;;;;4.72;2.72;;;;;;;;;;5073823;28;20040;-73
2022/09/20 05:04:14;;;;;;;2.50;1.40;;;;;;;;;;5075109;28;20025;-68
2022/09/20 05:07:15;;;;;;;4.95;2.03;;;;;;;;;;5074963;28;20107;-68
2022/09/20 05:10:20;;;;;;;4.43;1.65;;;;;;;;;;5074912;28;20032;-66
2022/09/20 05:13:07;;;;;;;3.67;1.20;;;;;;;;;;5074741;28;20024;-69
2022/09/20 05:15:42;;;;;;;8.18;2.72;;;;;;;;;;5074735;28;20051;-66
2022/09/20 05:18:19;;;;;;;3.40;1.83;;;;;;;;;;5074557;28;20071;-68
2022/09/20 05:20:58;;;;;;;7.10;2.30;;;;;;;;;;5074221;28;20044;-73
2022/09/20 05:23:29;;;;;;;4.93;2.40;;;;;;;;;;5073349;28;20024;-66
2022/09/20 05:26:12;;;;;;;9.50;3.83;;;;;;;;;;5074448;28;20028;-71
2022/09/20 05:28:57;;;;;;;23.58;8.38;;;;;;;;;;5074426;28;20369;-69
2022/09/20 05:31:44;;;;;;;18.55;7.05;;;;;;;;;;5074401;28;20378;-66
2022/09/20 05:34:30;;;;;;;16.15;5.65;;;;;;;;;;5074073;28;20032;-70
2022/09/20 05:37:16;;;;;;;12.82;4.68;;;;;;;;;;5074263;28;20143;-70
2022/09/20 05:40:06;;;;;;;7.63;4.07;;;;;;;;;;5074239;28;20465;-69
2022/09/20 05:42:38;;;;;;;6.57;3.15;;;;;;;;;;5074373;28;20029;-67
2022/09/20 05:45:32;;;;;;;6.05;2.60;;;;;;;;;;5074051;28;20052;-73
2022/09/20 05:48:26;;;;;;;13.70;2.92;;;;;;;;;;5074288;28;20108;-66
2022/09/20 05:50:59;;;;;;;9.13;4.43;;;;;;;;;;5074088;28;20082;-66
2022/09/20 05:53:53;;;;;;;5.97;2.55;;;;;;;;;;5074124;28;20563;-66
2022/09/20 05:56:34;;;;;;;3.80;1.90;;;;;;;;;;5074017;28;20474;-67
2022/09/20 05:59:27;;;;;;;8.13;1.88;;;;;;;;;;5073606;28;20047;-67
2022/09/20 06:02:12;;;;;;;49.35;35.97;;;;;;;;;;5047422;28;20490;-66
2022/09/20 06:04:49;;;;;;;17.90;13.07;;;;;;;;;;5034104;28;20479;-65
2022/09/20 06:07:30;;;;;;;5.25;2.25;;;;;;;;;;5033726;28;20036;-67
2022/09/20 06:09:58;;;;;;;5.78;4.00;;;;;;;;;;5033830;28;20030;-65
2022/09/20 06:12:41;;;;;;;4.25;2.30;;;;;;;;;;5033838;28;20034;-66
2022/09/20 06:15:10;;;;;;;5.25;2.30;;;;;;;;;;5033631;28;20013;-66
2022/09/20 06:17:39;;;;;;;2.78;1.63;;;;;;;;;;5033774;28;20120;-66
2022/09/20 06:20:38;;;;;;;3.10;1.77;;;;;;;;;;5032349;28;20487;-66
2022/09/20 06:23:04;;;;;;;2.13;1.63;;;;;;;;;;5033810;28;20037;-67
2022/09/20 06:25:54;;;;;;;2.40;1.00;;;;;;;;;;5033594;28;20028;-69
2022/09/20 06:28:24;;;;;;;4.85;3.33;;;;;;;;;;5033266;28;20025;-66
2022/09/20 06:30:51;;;;;;;4.93;2.92;;;;;;;;;;5032317;28;20033;-70
2022/09/20 06:33:21;;;;;;;6.45;3.47;;;;;;;;;;5033125;28;20017;-68
2022/09/20 06:35:49;;;;;;;5.45;3.00;;;;;;;;;;5033490;28;20128;-68
2022/09/20 06:41:28;;;;;;;3.53;0.95;;;;;;;;;;5033379;28;20040;-73
2022/09/20 06:43:58;;;;;;;4.97;1.90;;;;;;;;;;5033235;28;20104;-73
2022/09/20 06:46:31;;;;;;;2.23;1.00;;;;;;;;;;5033286;28;20029;-73
2022/09/20 06:48:57;;;;;;;3.85;1.20;;;;;;;;;;5033368;28;20387;-73
2022/09/20 06:51:26;;;;;;;4.47;1.20;;;;;;;;;;5033229;28;20025;-74
2022/09/20 06:53:52;;;;;;;6.53;2.33;;;;;;;;;;5033228;28;20106;-71
2022/09/20 06:56:24;;;;;;;6.93;2.65;;;;;;;;;;5033168;28;20032;-73
2022/09/20 06:58:51;;;;;;;2.28;1.25;;;;;;;;;;5032766;28;20037;-72
2022/09/20 07:01:18;;;;;;;6.63;3.00;;;;;;;;;;5042930;28;20490;-71
2022/09/20 07:03:43;;;;;;;4.32;1.35;;;;;;;;;;5051413;28;20478;-72
2022/09/20 07:06:10;;;;;;;2.70;1.35;;;;;;;;;;5052456;28;20039;-70
2022/09/20 07:08:36;;;;;;;4.78;1.98;;;;;;;;;;5052546;28;20112;-73
2022/09/20 07:11:22;;;;;;;4.40;2.67;;;;;;;;;;5052646;28;20096;-70
2022/09/20 07:13:53;;;;;;;4.03;1.63;;;;;;;;;;5052467;28;20033;-72
2022/09/20 07:16:19;;;;;;;2.58;1.00;;;;;;;;;;5051207;28;20075;-73
2022/09/20 07:18:46;;;;;;;3.45;1.20;;;;;;;;;;5052676;28;20371;-73
2022/09/20 07:21:13;;;;;;;4.70;1.80;;;;;;;;;;5050916;28;20037;-72
2022/09/20 07:23:39;;;;;;;5.15;1.13;;;;;;;;;;5052599;28;20067;-72
2022/09/20 07:26:05;;;;;;;7.03;1.40;;;;;;;;;;5051940;28;20382;-71
2022/09/20 07:28:33;;;;;;;1.88;1.00;;;;;;;;;;5050679;28;20090;-70
2022/09/20 07:30:59;;;;;;;2.60;0.90;;;;;;;;;;5052250;28;20029;-73
2022/09/20 07:33:25;;;;;;;6.20;0.90;;;;;;;;;;5070339;28;20029;-68
2022/09/20 07:35:55;;;;;;;3.13;0.93;;;;;;;;;;5072451;28;20067;-67
2022/09/20 07:38:21;;;;;;;5.90;0.93;;;;;;;;;;5072347;28;20064;-73
2022/09/20 07:40:58;;;;;;;2.85;0.80;;;;;;;;;;5072130;28;20482;-73
2022/09/20 07:43:24;;;;;;;1.23;0.70;;;;;;;;;;5072698;28;20158;-73
2022/09/20 07:45:54;;;;;;;4.22;1.30;;;;;;;;;;5073322;28;20107;-74
2022/09/20 07:48:24;;;;;;;;;;;;;;;;;;5076197;28;20470;-71
2022/09/20 07:50:53;;;;;;;;;;;;;;;;;;5076642;28;19912;-74
2022/09/20 07:53:19;;;;;;;3.47;0.68;;;;;;;;;;5076181;28;19919;-71
2022/09/20 07:56:00;;;;;;;3.30;0.82;;;;;;;;;;5076048;28;20111;-67
2022/09/20 07:58:27;;;;;;;1.52;0.70;;;;;;;;;;5075788;28;20035;-73
2022/09/20 08:00:55;;;;;;;4.00;0.98;;;;;;;;;;5075836;28;20028;-69
2022/09/20 08:03:21;;;;;;;5.15;1.00;;;;;;;;;;5075956;28;20032;-68
2022/09/20 08:05:49;;;;;;;1.98;0.90;;;;;;;;;;5076000;28;20024;-73
2022/09/20 08:08:17;;;;;;;8.27;1.20;;;;;;;;;;5075704;28;20116;-73
2022/09/20 08:10:44;;;;;;;7.53;1.08;;;;;;;;;;5075474;28;20020;-72
2022/09/20 08:13:12;;;;;;;9.95;1.25;;;;;;;;;;5076006;28;20103;-74
2022/09/20 08:15:38;;;;;;;2.75;0.70;;;;;;;;;;5075804;28;20094;-74
2022/09/20 08:18:03;;;;;;;5.70;1.00;;;;;;;;;;5075532;28;20473;-69
2022/09/20 08:20:29;;;;;;;7.22;1.00;;;;;;;;;;5075173;28;20508;-68
2022/09/20 08:22:57;;;;;;;2.05;0.70;;;;;;;;;;5035530;28;20038;-73
2022/09/20 08:25:23;;;;;;;2.45;0.90;;;;;;;;;;5035374;28;20061;-68
2022/09/20 08:27:53;;;;;;;1.10;0.60;;;;;;;;;;5035270;28;20069;-67
2022/09/20 08:30:18;;;;;;;3.08;0.57;;;;;;;;;;5035216;28;20025;-66
2022/09/20 08:32:44;;;;;;;2.25;0.60;;;;;;;;;;5035416;28;20060;-65
2022/09/20 08:35:10;;;;;;;6.88;1.08;;;;;;;;;;5035398;28;20029;-66
2022/09/20 08:37:36;;;;;;;0.60;0.40;;;;;;;;;;5037206;28;20024;-64
2022/09/20 08:40:03;;;;;;;1.38;0.50;;;;;;;;;;5045886;28;20025;-65
2022/09/20 08:42:37;;;;;;;0.57;0.50;;;;;;;;;;5054731;28;20027;-65
2022/09/20 08:45:14;;;;;;;0.95;0.60;;;;;;;;;;5054311;28;20386;-65
2022/09/20 08:48:04;;;;;;;5.55;1.15;;;;;;;;;;5055108;28;20111;-65
2022/09/20 08:50:33;;;;;;;3.87;0.63;;;;;;;;;;5044676;28;20017;-66
2022/09/20 08:53:03;;;;;;;0.70;0.50;;;;;;;;;;5054655;28;20032;-65
2022/09/20 08:55:31;;;;;;;1.75;0.60;;;;;;;;;;5054986;28;20471;-66
2022/09/20 08:57:58;;;;;;;5.57;0.75;;;;;;;;;;5054818;28;20074;-66
2022/09/20 09:00:28;;;;;;;5.88;0.57;;;;;;;;;;5054630;28;20082;-68
2022/09/20 09:02:54;;;;;;;;;;;;;;;;;;5053983;28;20112;-71
2022/09/20 09:05:35;;;;;;;5.20;0.70;;;;;;;;;;5054658;28;20046;-65
2022/09/20 09:08:31;;;;;;;2.58;0.93;;;;;;;;;;5054454;28;20500;-66
2022/09/20 09:11:07;;;;;;;2.15;0.60;;;;;;;;;;5041740;28;20061;-66
2022/09/20 09:13:38;;;;;;;2.05;0.70;;;;;;;;;;5053928;28;20021;-71
2022/09/20 09:16:16;;;;;;;9.05;1.25;;;;;;;;;;5054410;28;20048;-71
2022/09/20 09:18:44;;;;;;;2.83;1.00;;;;;;;;;;5054479;28;20040;-71
2022/09/20 09:21:18;;;;;;;1.05;0.73;;;;;;;;;;5059748;28;20163;-71
2022/09/20 09:24:08;;;;;;;1.67;0.70;;;;;;;;;;5074281;28;20024;-66
2022/09/20 09:26:39;;;;;;;10.95;1.10;;;;;;;;;;5074203;28;20094;-65
2022/09/20 09:29:22;;;;;;;2.20;1.02;;;;;;;;;;5074307;28;20032;-66
2022/09/20 09:31:53;;;;;;;2.35;0.88;;;;;;;;;;5074454;28;20069;-68
2022/09/20 09:34:30;;;;;;;2.03;0.70;;;;;;;;;;5045872;28;20037;-65
2022/09/20 09:36:57;;;;;;;2.15;0.60;;;;;;;;;;5032555;28;20494;-67
2022/09/20 09:39:28;;;;;;;0.98;0.60;;;;;;;;;;5038326;28;20119;-66
2022/09/20 09:41:54;;;;;;;4.95;0.80;;;;;;;;;;5045588;28;20156;-66
2022/09/20 09:44:26;;;;;;;1.23;0.50;;;;;;;;;;5054053;28;20429;-66
2022/09/20 09:46:52;;;;;;;4.53;1.25;;;;;;;;;;5055162;28;20033;-76
2022/09/20 09:49:21;;;;;;;4.57;1.10;;;;;;;;;;5056942;28;20036;-74
2022/09/20 09:52:01;;;;;;;1.60;0.90;;;;;;;;;;5053818;28;20107;-76
2022/09/20 09:54:36;;;;;;;1.20;0.75;;;;;;;;;;5053595;28;20536;-75
2022/09/20 09:57:07;;;;;;;2.67;0.60;;;;;;;;;;5053690;28;20064;-74
2022/09/20 09:59:48;;;;;;;2.83;0.43;;;;;;;;;;5054036;28;20118;-74
2022/09/20 10:02:42;;;;;;;0.80;0.50;;;;;;;;;;5053535;28;20112;-75
2022/09/20 10:05:33;;;;;;;0.47;0.40;;;;;;;;;;5053573;28;20017;-75
2022/09/20 10:08:26;;;;;;;9.40;0.88;;;;;;;;;;5050209;28;20119;-75
2022/09/20 10:11:03;;;;;;;0.63;0.40;;;;;;;;;;5053840;28;20375;-75
2022/09/20 10:13:44;;;;;;;3.42;0.70;;;;;;;;;;5053769;28;20115;-75
2022/09/20 10:16:43;;;;;;;2.72;0.88;;;;;;;;;;5053285;28;20116;-75
2022/09/20 10:19:16;;;;;;;1.42;0.60;;;;;;;;;;5053202;28;20033;-67
2022/09/20 10:22:09;;;;;;;4.07;0.90;;;;;;;;;;5052864;28;20041;-74
2022/09/20 10:25:02;;;;;;;3.28;0.70;;;;;;;;;;5053069;28;20160;-67
2022/09/20 10:27:47;;;;;;;2.00;0.60;;;;;;;;;;5053258;28;20072;-70
2022/09/20 10:30:44;;;;;;;6.00;0.90;;;;;;;;;;5052472;28;20524;-75
2022/09/20 10:33:29;;;;;;;3.33;0.80;;;;;;;;;;5053157;28;20148;-66
2022/09/20 10:36:09;;;;;;;1.83;0.93;;;;;;;;;;5053174;28;20028;-75
2022/09/20 10:38:58;;;;;;;1.80;0.90;;;;;;;;;;5053036;28;20083;-75
2022/09/20 10:45:14;;;;;;;2.03;0.80;;;;;;;;;;5052970;28;20044;-76
2022/09/20 10:47:48;;;;;;;2.67;0.80;;;;;;;;;;5048609;28;20033;-75
2022/09/20 10:50:35;;;;;;;2.40;0.70;;;;;;;;;;5032649;28;20029;-66
2022/09/20 10:53:18;;;;;;;0.65;0.60;;;;;;;;;;5032836;28;20474;-75
2022/09/20 10:55:56;;;;;;;2.28;0.70;;;;;;;;;;5032607;28;20056;-74
2022/09/20 10:58:45;;;;;;;2.65;0.70;;;;;;;;;;5032462;28;20074;-70
2022/09/20 11:01:48;;;;;;;1.27;0.70;;;;;;;;;;5032744;28;20104;-69
2022/09/20 11:04:44;;;;;;;3.30;0.77;;;;;;;;;;5032313;28;20108;-73
2022/09/20 11:07:38;;;;;;;6.82;1.20;;;;;;;;;;5045613;28;20057;-65
2022/09/20 11:10:35;;;;;;;2.80;0.60;;;;;;;;;;5052717;28;20071;-76
2022/09/20 11:13:31;;;;;;;3.63;0.75;;;;;;;;;;5052249;28;20523;-66
2022/09/20 11:16:15;;;;;;;4.35;0.80;;;;;;;;;;5052214;28;20037;-73
2022/09/20 11:19:03;;;;;;;3.92;0.70;;;;;;;;;;5052196;28;20029;-74
2022/09/20 11:22:01;;;;;;;2.22;0.40;;;;;;;;;;4990817;28;20483;-69
2022/09/20 11:24:30;;;;;;;1.30;0.43;;;;;;;;;;4963263;28;20555;-67
2022/09/20 11:27:24;;;;;;;1.00;0.70;;;;;;;;;;4951964;29;20053;-65
2022/09/20 11:30:13;;;;;;;1.95;0.95;;;;;;;;;;4951645;29;20035;-66
2022/09/20 11:32:48;;;;;;;4.23;0.70;;;;;;;;;;4951941;29;20047;-74
2022/09/20 11:35:31;;;;;;;1.50;0.60;;;;;;;;;;4952122;29;20035;-72
2022/09/20 11:38:42;;;;;;;1.38;0.68;;;;;;;;;;4951967;29;20034;-67
2022/09/20 11:41:14;;;;;;;2.85;0.65;;;;;;;;;;4949974;29;20036;-76
2022/09/20 11:43:44;;;;;;;2.38;0.70;;;;;;;;;;4952079;29;20031;-73
2022/09/20 11:46:18;;;;;;;;;;;;;;;;;;4952325;29;20036;-77
2022/09/20 11:48:52;;;;;;;2.55;0.77;;;;;;;;;;4951912;28;19921;-69
2022/09/20 11:51:55;;;;;;;2.28;0.70;;;;;;;;;;4951867;29;20504;-76
2022/09/20 11:54:55;;;;;;;3.25;1.20;;;;;;;;;;4950830;29;20079;-66
2022/09/20 11:57:21;;;;;;;1.40;0.80;;;;;;;;;;4894246;29;20047;-70
2022/09/20 11:59:54;;;;;;;7.07;1.20;;;;;;;;;;4894827;29;20491;-69
2022/09/20 12:02:40;;;;;;;1.88;0.68;;;;;;;;;;4959944;28;20448;-73
2022/09/20 12:05:38;;;;;;;6.82;0.88;;;;;;;;;;4971276;28;20432;-75
2022/09/20 12:08:19;;;;;;;2.00;0.52;;;;;;;;;;4971155;28;20519;-76
2022/09/20 12:11:22;;;;;;;2.38;0.60;;;;;;;;;;4971174;28;20046;-71
2022/09/20 12:13:54;;;;;;;1.73;0.60;;;;;;;;;;4962641;28;20050;-76
2022/09/20 12:16:38;;;;;;;1.63;0.50;;;;;;;;;;4970725;28;20034;-75
2022/09/20 12:19:32;;;;;;;2.92;0.60;;;;;;;;;;4970851;28;20039;-70
2022/09/20 12:21:57;;;;;;;3.72;0.73;;;;;;;;;;4970744;28;20047;-67
2022/09/20 12:24:38;;;;;;;2.00;0.55;;;;;;;;;;4971052;28;20042;-66
2022/09/20 12:27:42;;;;;;;3.67;0.50;;;;;;;;;;4970797;28;20126;-69
2022/09/20 12:30:19;;;;;;;3.22;0.60;;;;;;;;;;4970141;28;20031;-76
2022/09/20 12:32:50;;;;;;;0.43;0.30;;;;;;;;;;4983246;28;20051;-70
2022/09/20 12:35:34;;;;;;;2.58;0.55;;;;;;;;;;5054678;28;20028;-67
2022/09/20 12:38:33;;;;;;;1.65;0.45;;;;;;;;;;5054968;28;20079;-72
2022/09/20 12:41:01;;;;;;;2.53;0.50;;;;;;;;;;5032952;28;20033;-68
2022/09/20 12:43:29;;;;;;;0.50;0.50;;;;;;;;;;5033220;28;20367;-69
2022/09/20 12:45:55;;;;;;;9.10;1.30;;;;;;;;;;5032666;28;20044;-66
2022/09/20 12:48:21;;;;;;;0.90;0.47;;;;;;;;;;5016501;28;20021;-66
2022/09/20 12:54:17;;;;;;;1.90;0.55;;;;;;;;;;4954554;29;20137;-74
2022/09/20 12:56:45;;;;;;;11.60;1.10;;;;;;;;;;4954429;29;20041;-67
2022/09/20 12:59:29;;;;;;;2.22;0.63;;;;;;;;;;4954583;29;20062;-74
2022/09/20 13:01:55;;;;;;;1.33;0.40;;;;;;;;;;4954550;29;20046;-69
2022/09/20 13:04:50;;;;;;;2.88;0.82;;;;;;;;;;4954385;29;20047;-72
2022/09/20 13:07:35;;;;;;;1.08;0.57;;;;;;;;;;4954663;29;20035;-68
2022/09/20 13:10:24;;;;;;;4.90;1.02;;;;;;;;;;4954247;29;20039;-67
2022/09/20 13:12:58;;;;;;;3.72;0.40;;;;;;;;;;4954072;29;20066;-73
2022/09/20 13:15:24;;;;;;;1.25;0.40;;;;;;;;;;4954305;29;20067;-74
2022/09/20 13:17:52;;;;;;;2.33;0.80;;;;;;;;;;4953985;29;20067;-74
2022/09/20 13:20:23;;;;;;;0.68;0.38;;;;;;;;;;4954152;29;20085;-75
2022/09/20 13:22:50;;;;;;;3.22;0.45;;;;;;;;;;4935730;29;20051;-75
2022/09/20 13:25:20;;;;;;;6.72;0.60;;;;;;;;;;4934755;29;20066;-75
2022/09/20 13:27:58;;;;;;;6.03;1.38;;;;;;;;;;4934735;29;20035;-69
2022/09/20 13:30:28;;;;;;;2.72;0.70;;;;;;;;;;4978138;28;20137;-75
2022/09/20 13:32:54;;;;;;;3.45;0.52;;;;;;;;;;5054209;28;20033;-76
2022/09/20 13:35:22;;;;;;;0.60;0.50;;;;;;;;;;5054204;28;20033;-74
2022/09/20 13:37:58;;;;;;;2.42;0.60;;;;;;;;;;5053761;28;20032;-66
2022/09/20 13:40:46;;;;;;;5.68;0.80;;;;;;;;;;5052644;28;20031;-74
2022/09/20 13:43:41;;;;;;;2.05;0.70;;;;;;;;;;5052677;28;20419;-76
2022/09/20 13:46:11;;;;;;;4.78;0.70;;;;;;;;;;5053695;28;20490;-75
2022/09/20 13:48:37;;;;;;;3.88;0.60;;;;;;;;;;5053643;28;20029;-74
2022/09/20 13:51:03;;;;;;;0.77;0.50;;;;;;;;;;5053851;28;20026;-75
2022/09/20 13:53:29;;;;;;;1.95;0.70;;;;;;;;;;5053555;28;20112;-75
2022/09/20 13:55:55;;;;;;;1.70;0.35;;;;;;;;;;5053878;28;20025;-76
2022/09/20 13:58:28;;;;;;;2.30;0.55;;;;;;;;;;5052069;28;20040;-70
2022/09/20 14:00:57;;;;;;;2.20;0.50;;;;;;;;;;5053718;28;20037;-74
2022/09/20 14:03:24;;;;;;;1.65;0.80;;;;;;;;;;5053606;28;20493;-73
2022/09/20 14:05:53;;;;;;;5.50;0.80;;;;;;;;;;5053552;28;20029;-73
2022/09/20 14:08:25;;;;;;;2.28;0.57;;;;;;;;;;5053415;28;20029;-74
2022/09/20 14:11:22;;;;;;;2.72;0.65;;;;;;;;;;5053505;28;20033;-75
2022/09/20 14:13:53;;;;;;;3.80;0.77;;;;;;;;;;5048364;28;20131;-69
2022/09/20 14:16:21;;;;;;;2.45;0.60;;;;;;;;;;5053198;28;20024;-67
2022/09/20 14:18:48;;;;;;;2.03;0.73;;;;;;;;;;5053278;28;20386;-75
2022/09/20 14:21:20;;;;;;;1.52;0.75;;;;;;;;;;5052829;28;20442;-74
2022/09/20 14:23:57;;;;;;;1.63;0.70;;;;;;;;;;5053489;28;20111;-73
2022/09/20 14:26:22;;;;;;;1.30;0.70;;;;;;;;;;5052968;28;20075;-74
2022/09/20 14:28:48;;;;;;;5.13;1.33;;;;;;;;;;5052690;28;20029;-75
2022/09/20 14:31:19;;;;;;;3.20;1.65;;;;;;;;;;5052924;28;20025;-69
2022/09/20 14:33:48;;;;;;;2.83;1.00;;;;;;;;;;5053071;28;20100;-67
2022/09/20 14:36:19;;;;;;;0.95;0.50;;;;;;;;;;5052908;28;20108;-65
2022/09/20 14:38:45;;;;;;;;;;;;;;;;;;5053193;28;20075;-68
2022/09/20 14:41:12;;;;;;;2.05;0.70;;;;;;;;;;5052666;28;19923;-69
2022/09/20 14:43:39;;;;;;;1.30;0.38;;;;;;;;;;5052548;28;20104;-67
2022/09/20 14:46:14;;;;;;;0.80;0.40;;;;;;;;;;5052452;28;20078;-72
2022/09/20 14:48:40;;;;;;;2.45;0.55;;;;;;;;;;5052752;28;20033;-72
2022/09/20 14:51:18;;;;;;;1.13;0.68;;;;;;;;;;5051850;28;20450;-67
2022/09/20 14:53:45;;;;;;;1.10;0.60;;;;;;;;;;5052864;28;20420;-68
2022/09/20 14:56:13;;;;;;;1.05;0.50;;;;;;;;;;5052134;28;20021;-75
2022/09/20 14:59:01;;;;;;;0.80;0.60;;;;;;;;;;5052347;28;20029;-73
2022/09/20 15:01:27;;;;;;;3.55;0.50;;;;;;;;;;5052543;28;20382;-75
2022/09/20 15:03:55;;;;;;;3.05;1.05;;;;;;;;;;5052331;28;20025;-73
2022/09/20 15:06:21;;;;;;;3.15;0.60;;;;;;;;;;5052160;28;20036;-73
2022/09/20 15:08:47;;;;;;;7.43;0.90;;;;;;;;;;5052333;28;20331;-70
2022/09/20 15:11:19;;;;;;;2.45;1.05;;;;;;;;;;5051654;28;20059;-75
2022/09/20 15:13:44;;;;;;;4.75;1.15;;;;;;;;;;5052514;28;20099;-73
2022/09/20 15:16:16;;;;;;;4.35;1.15;;;;;;;;;;5052110;28;20105;-75
2022/09/20 15:18:42;;;;;;;4.40;1.30;;;;;;;;;;5052263;28;20410;-70
2022/09/20 15:21:10;;;;;;;2.42;1.35;;;;;;;;;;5052004;28;20041;-73
2022/09/20 15:23:36;;;;;;;4.78;1.20;;;;;;;;;;5052391;28;20078;-67
2022/09/20 15:26:02;;;;;;;1.75;0.90;;;;;;;;;;5051984;28;20053;-71
2022/09/20 15:28:27;;;;;;;1.70;0.68;;;;;;;;;;5052130;28;20451;-74
2022/09/20 15:30:53;;;;;;;4.72;0.60;;;;;;;;;;5051783;28;20028;-67
2022/09/20 15:33:20;;;;;;;2.30;0.82;;;;;;;;;;5052113;28;20025;-74
2022/09/20 15:35:47;;;;;;;2.78;0.70;;;;;;;;;;5052043;28;20074;-74
2022/09/20 15:38:16;;;;;;;1.55;0.60;;;;;;;;;;5041160;28;20095;-70
2022/09/20 15:40:46;;;;;;;4.68;0.93;;;;;;;;;;5042310;28;20056;-69
2022/09/20 15:43:20;;;;;;;4.57;0.70;;;;;;;;;;5041796;28;20088;-67
2022/09/20 15:45:51;;;;;;;1.08;0.50;;;;;;;;;;5040869;28;20026;-67
2022/09/20 15:48:28;;;;;;;1.02;0.60;;;;;;;;;;5040428;28;20021;-67
2022/09/20 15:51:03;;;;;;;2.92;0.85;;;;;;;;;;5041383;28;20063;-67
2022/09/20 15:53:43;;;;;;;2.15;0.85;;;;;;;;;;5040902;28;20022;-72
2022/09/20 15:56:30;;;;;;;0.70;0.50;;;;;;;;;;5041173;28;20084;-69